createdAt,value
2023-05-06T00:02:54.359Z,5.62
2023-05-06T00:05:57.543Z,6.53
2023-05-06T00:09:00.685Z,7.45
2023-05-06T00:12:05.532Z,6.32
2023-05-06T00:15:08.695Z,6.95
2023-05-06T00:18:11.870Z,6.85
2023-05-06T00:21:14.503Z,7.12
2023-05-06T00:24:17.464Z,6.68
2023-05-06T00:27:20.063Z,6.07
2023-05-06T00:30:25.993Z,6.78
2023-05-06T00:33:30.560Z,5.07
2023-05-06T00:36:34.152Z,7.10
2023-05-06T00:39:36.925Z,6.15
2023-05-06T00:42:39.778Z,6.90
2023-05-06T00:45:42.410Z,6.90
2023-05-06T00:48:45.790Z,7.22
2023-05-06T00:51:48.927Z,6.40
2023-05-06T00:54:52.318Z,4.72
2023-05-06T00:57:55.284Z,6.05
2023-05-06T01:00:58.653Z,6.82
2023-05-06T01:04:01.752Z,6.03
2023-05-06T01:07:35.026Z,7.05
2023-05-06T01:11:25.473Z,5.65
2023-05-06T01:15:02.167Z,6.12
2023-05-06T01:18:10.716Z,7.45
2023-05-06T01:21:14.207Z,5.37
2023-05-06T01:24:17.066Z,5.95
2023-05-06T01:27:20.238Z,6.60
2023-05-06T01:30:27.622Z,6.93
2023-05-06T01:34:00.184Z,5.57
2023-05-06T01:37:24.299Z,6.10
2023-05-06T01:40:30.319Z,7.07
2023-05-06T01:43:40.667Z,5.68
2023-05-06T01:46:45.913Z,6.93
2023-05-06T01:49:49.090Z,5.37
2023-05-06T01:53:00.186Z,7.03
2023-05-06T01:56:03.174Z,6.72
2023-05-06T01:59:06.653Z,5.87
2023-05-06T02:02:09.434Z,7.25
2023-05-06T02:05:12.480Z,4.90
2023-05-06T02:08:15.298Z,6.32
2023-05-06T02:11:19.025Z,7.07
2023-05-06T02:14:22.264Z,5.57
2023-05-06T02:17:25.450Z,7.60
2023-05-06T02:20:28.133Z,5.03
2023-05-06T02:23:31.713Z,7.15
2023-05-06T02:26:34.509Z,5.40
2023-05-06T02:29:37.623Z,6.95
2023-05-06T02:32:41.330Z,6.85
2023-05-06T02:35:43.900Z,5.43
2023-05-06T02:38:46.824Z,6.45
2023-05-06T02:41:49.688Z,6.50
2023-05-06T02:44:54.386Z,4.37
2023-05-06T02:47:57.061Z,5.82
2023-05-06T02:51:00.058Z,5.35
2023-05-06T02:54:02.580Z,6.80
2023-05-06T02:57:05.423Z,4.97
2023-05-06T03:00:11.007Z,5.82
2023-05-06T03:03:13.953Z,5.95
2023-05-06T03:06:16.789Z,5.15
2023-05-06T03:09:19.748Z,4.93
2023-05-06T03:12:22.496Z,4.97
2023-05-06T03:15:26.110Z,6.12
2023-05-06T03:18:29.644Z,4.82
2023-05-06T03:21:33.395Z,6.82
2023-05-06T03:24:36.376Z,7.30
2023-05-06T03:27:40.796Z,4.37
2023-05-06T03:30:44.264Z,4.97
2023-05-06T03:33:47.993Z,4.50
2023-05-06T03:36:50.849Z,6.93
2023-05-06T03:39:54.448Z,5.82
2023-05-06T03:43:15.597Z,4.82
2023-05-06T03:46:22.056Z,5.95
2023-05-06T03:49:25.862Z,5.82
2023-05-06T03:52:29.852Z,5.32
2023-05-06T03:55:33.924Z,7.70
2023-05-06T03:58:37.140Z,5.55
2023-05-06T04:01:40.814Z,4.75
2023-05-06T04:04:44.920Z,6.75
2023-05-06T04:07:47.742Z,5.57
2023-05-06T04:10:50.697Z,6.45
2023-05-06T04:13:54.213Z,6.28
2023-05-06T04:16:57.845Z,4.95
2023-05-06T04:20:07.018Z,6.93
2023-05-06T04:23:10.660Z,6.80
2023-05-06T04:26:13.357Z,5.57
2023-05-06T04:29:16.572Z,6.28
2023-05-06T04:32:20.961Z,5.93
2023-05-06T04:35:24.202Z,5.93
2023-05-06T04:38:32.267Z,5.87
2023-05-06T04:41:36.685Z,6.53
2023-05-06T04:44:40.348Z,6.82
2023-05-06T04:47:43.883Z,6.10
2023-05-06T04:50:47.295Z,6.43
2023-05-06T04:53:50.362Z,6.43
2023-05-06T04:56:53.357Z,7.07
2023-05-06T04:59:56.826Z,7.20
2023-05-06T05:03:18.016Z,7.28
2023-05-06T05:06:22.495Z,6.90
2023-05-06T05:09:25.574Z,6.82
2023-05-06T05:12:28.579Z,6.87
2023-05-06T05:15:31.221Z,6.50
2023-05-06T05:18:34.367Z,6.97
2023-05-06T05:21:37.896Z,7.07
2023-05-06T05:24:41.535Z,6.80
2023-05-06T05:27:44.108Z,6.82
2023-05-06T05:30:47.026Z,6.85
2023-05-06T05:33:50.261Z,6.97
2023-05-06T05:36:54.575Z,6.47
2023-05-06T05:39:57.884Z,6.90
2023-05-06T05:43:00.994Z,7.18
2023-05-06T05:46:04.478Z,7.00
2023-05-06T05:49:07.952Z,7.53
2023-05-06T05:52:10.869Z,7.60
2023-05-06T05:55:13.765Z,6.57
2023-05-06T05:58:17.950Z,6.97
2023-05-06T06:01:21.411Z,6.72
2023-05-06T06:04:25.768Z,6.37
2023-05-06T06:07:28.522Z,7.22
2023-05-06T06:10:31.426Z,6.80
2023-05-06T06:13:36.231Z,6.82
2023-05-06T06:16:39.261Z,6.93
2023-05-06T06:19:42.054Z,6.60
2023-05-06T06:22:45.430Z,6.68
2023-05-06T06:25:48.054Z,6.72
2023-05-06T06:28:51.368Z,6.97
2023-05-06T06:31:56.114Z,6.90
2023-05-06T06:34:59.133Z,6.87
2023-05-06T06:38:03.010Z,6.65
2023-05-06T06:41:06.060Z,6.70
2023-05-06T06:44:08.563Z,6.97
2023-05-06T06:47:11.376Z,6.85
2023-05-06T06:50:14.234Z,6.70
2023-05-06T06:53:17.419Z,7.00
2023-05-06T06:56:19.984Z,7.12
2023-05-06T06:59:23.315Z,6.87
2023-05-06T07:02:26.368Z,7.22
2023-05-06T07:05:29.985Z,6.40
2023-05-06T07:08:32.524Z,7.25
2023-05-06T07:11:35.585Z,7.10
2023-05-06T07:14:38.321Z,7.18
2023-05-06T07:17:41.372Z,7.20
2023-05-06T07:20:44.048Z,6.85
2023-05-06T07:23:46.886Z,7.10
2023-05-06T07:26:49.679Z,7.37
2023-05-06T07:29:52.663Z,6.90
2023-05-06T07:32:55.450Z,7.20
2023-05-06T07:35:58.451Z,7.15
2023-05-06T07:39:01.370Z,7.18
2023-05-06T07:42:04.522Z,7.93
2023-05-06T07:45:07.984Z,7.70
2023-05-06T07:48:14.039Z,7.30
2023-05-06T07:51:16.656Z,7.30
2023-05-06T07:54:19.698Z,7.45
2023-05-06T07:57:22.724Z,7.15
2023-05-06T08:00:25.680Z,7.05
2023-05-06T08:03:28.658Z,7.15
2023-05-06T08:06:32.420Z,7.18
2023-05-06T08:09:35.308Z,7.87
2023-05-06T08:12:38.348Z,7.12
2023-05-06T08:15:41.593Z,6.90
2023-05-06T08:18:44.507Z,8.20
2023-05-06T08:21:48.589Z,7.70
2023-05-06T08:24:51.229Z,7.25
2023-05-06T08:27:54.091Z,7.72
2023-05-06T08:30:56.668Z,8.10
2023-05-06T08:33:59.635Z,7.15
2023-05-06T08:37:02.420Z,8.68
2023-05-06T08:40:07.961Z,8.38
2023-05-06T08:43:14.724Z,7.70
2023-05-06T08:46:18.059Z,10.90
2023-05-06T08:49:21.145Z,8.25
2023-05-06T08:52:24.535Z,8.02
2023-05-06T08:55:28.265Z,8.30
2023-05-06T08:58:37.583Z,7.60
2023-05-06T09:01:40.518Z,7.68
2023-05-06T09:04:44.559Z,8.90
2023-05-06T09:07:47.164Z,7.62
2023-05-06T09:10:50.131Z,8.23
2023-05-06T09:14:07.551Z,8.35
2023-05-06T09:17:24.519Z,7.50
2023-05-06T09:20:27.210Z,8.63
2023-05-06T09:23:30.363Z,8.43
2023-05-06T09:26:35.312Z,7.65
2023-05-06T09:29:38.528Z,7.97
2023-05-06T09:32:42.047Z,7.70
2023-05-06T09:35:45.812Z,8.40
2023-05-06T09:38:48.591Z,8.10
2023-05-06T09:41:51.775Z,6.57
2023-05-06T09:45:01.644Z,7.32
2023-05-06T09:48:08.351Z,6.50
2023-05-06T09:51:11.234Z,6.10
2023-05-06T09:54:17.389Z,5.70
2023-05-06T09:57:22.378Z,4.80
2023-05-06T10:00:29.046Z,4.55
2023-05-06T10:03:33.150Z,4.85
2023-05-06T10:06:39.808Z,5.57
2023-05-06T10:09:42.931Z,4.70
2023-05-06T10:12:46.242Z,5.03
2023-05-06T10:15:50.646Z,5.95
2023-05-06T10:18:55.404Z,5.70
2023-05-06T10:22:06.424Z,4.72
2023-05-06T10:25:30.262Z,4.28
2023-05-06T10:28:39.457Z,4.70
2023-05-06T10:31:49.134Z,5.37
2023-05-06T10:34:55.865Z,4.82
2023-05-06T10:37:59.817Z,5.05
2023-05-06T10:41:03.832Z,4.90
2023-05-06T10:44:07.087Z,4.43
2023-05-06T10:47:09.981Z,4.45
2023-05-06T10:50:18.577Z,4.37
2023-05-06T10:53:59.769Z,4.10
2023-05-06T10:57:09.820Z,3.55
2023-05-06T11:00:13.357Z,3.65
2023-05-06T11:03:18.918Z,3.83
2023-05-06T11:06:35.805Z,3.45
2023-05-06T11:10:00.192Z,3.33
2023-05-06T11:13:27.568Z,3.35
2023-05-06T11:16:50.822Z,3.03
2023-05-06T11:20:23.151Z,3.47
2023-05-06T11:23:52.318Z,3.58
2023-05-06T11:26:59.641Z,3.40
2023-05-06T11:30:02.620Z,3.55
2023-05-06T11:33:07.526Z,3.53
2023-05-06T11:36:15.622Z,3.70
2023-05-06T11:39:18.683Z,3.90
2023-05-06T11:42:26.451Z,4.07
2023-05-06T11:45:49.030Z,3.62
2023-05-06T11:48:52.345Z,3.97
2023-05-06T11:51:57.183Z,3.78
2023-05-06T11:54:59.755Z,3.62
2023-05-06T11:58:02.627Z,3.37
2023-05-06T12:01:05.257Z,3.80
2023-05-06T12:04:08.684Z,3.65
2023-05-06T12:07:13.856Z,3.60
2023-05-06T12:10:17.393Z,3.62
2023-05-06T12:13:21.200Z,3.50
2023-05-06T12:16:25.772Z,3.33
2023-05-06T12:19:29.563Z,3.10
2023-05-06T12:22:32.500Z,3.55
2023-05-06T12:25:36.458Z,3.12
2023-05-06T12:28:42.626Z,3.45
2023-05-06T12:31:49.287Z,3.22
2023-05-06T12:34:52.654Z,3.37
2023-05-06T12:37:56.047Z,3.03
2023-05-06T12:40:58.906Z,3.33
2023-05-06T12:44:01.568Z,3.20
2023-05-06T12:47:18.247Z,3.35
2023-05-06T12:50:35.478Z,3.80
2023-05-06T12:53:38.720Z,3.40
2023-05-06T12:56:41.329Z,3.47
2023-05-06T12:59:45.871Z,3.60
2023-05-06T13:02:48.990Z,3.62
2023-05-06T13:05:52.005Z,3.45
2023-05-06T13:08:54.660Z,3.40
2023-05-06T13:11:58.353Z,3.20
2023-05-06T13:15:01.121Z,3.60
2023-05-06T13:18:04.973Z,3.33
2023-05-06T13:21:07.655Z,3.10
2023-05-06T13:24:10.648Z,3.40
2023-05-06T13:27:13.432Z,3.25
2023-05-06T13:30:17.047Z,3.55
2023-05-06T13:33:19.781Z,3.90
2023-05-06T13:36:23.925Z,4.28
2023-05-06T13:39:26.736Z,4.03
2023-05-06T13:42:30.163Z,4.30
2023-05-06T13:45:33.706Z,4.40
2023-05-06T13:48:36.629Z,4.22
2023-05-06T13:51:39.254Z,4.18
2023-05-06T13:54:42.234Z,4.25
2023-05-06T13:57:44.773Z,4.18
2023-05-06T14:00:48.595Z,4.05
2023-05-06T14:03:52.657Z,3.80
2023-05-06T14:06:56.065Z,4.12
2023-05-06T14:09:58.923Z,4.43
2023-05-06T14:13:01.604Z,4.30
2023-05-06T14:16:04.903Z,4.30
2023-05-06T14:19:07.601Z,4.60
2023-05-06T14:22:10.863Z,5.12
2023-05-06T14:25:13.702Z,5.10
2023-05-06T14:28:17.205Z,5.57
2023-05-06T14:31:19.798Z,6.00
2023-05-06T14:34:22.859Z,5.97
2023-05-06T14:37:25.413Z,6.25
2023-05-06T14:40:28.636Z,6.75
2023-05-06T14:43:31.285Z,6.60
2023-05-06T14:46:34.196Z,6.47
2023-05-06T14:49:36.779Z,7.45
2023-05-06T14:52:41.529Z,7.07
2023-05-06T14:55:45.545Z,7.87
2023-05-06T14:58:48.389Z,7.28
2023-05-06T15:01:51.165Z,7.70
2023-05-06T15:04:54.773Z,7.93
2023-05-06T15:07:57.329Z,8.18
2023-05-06T15:11:03.023Z,8.40
2023-05-06T15:14:06.582Z,8.27
2023-05-06T15:17:09.554Z,7.70
2023-05-06T15:20:13.748Z,8.52
2023-05-06T15:23:16.659Z,8.02
2023-05-06T15:26:19.251Z,8.15
2023-05-06T15:29:22.201Z,8.25
2023-05-06T15:32:24.875Z,7.68
2023-05-06T15:35:27.880Z,7.90
2023-05-06T15:38:53.047Z,7.22
2023-05-06T15:41:59.357Z,7.10
2023-05-06T15:45:01.995Z,6.53
2023-05-06T15:48:06.445Z,6.40
2023-05-06T15:51:09.240Z,6.10
2023-05-06T15:54:13.106Z,6.30
2023-05-06T15:57:15.783Z,6.25
2023-05-06T16:00:18.935Z,5.93
2023-05-06T16:03:21.940Z,5.15
2023-05-06T16:06:24.656Z,4.62
2023-05-06T16:09:27.850Z,4.20
2023-05-06T16:12:32.641Z,4.35
2023-05-06T16:15:35.677Z,4.50
2023-05-06T16:18:38.448Z,4.30
2023-05-06T16:21:41.558Z,4.70
2023-05-06T16:24:44.263Z,4.37
2023-05-06T16:27:47.096Z,4.85
2023-05-06T16:30:52.340Z,4.87
2023-05-06T16:33:55.195Z,4.47
2023-05-06T16:37:00.446Z,4.57
2023-05-06T16:40:04.437Z,5.35
2023-05-06T16:43:07.102Z,5.43
2023-05-06T16:46:10.553Z,5.00
2023-05-06T16:49:13.314Z,5.47
2023-05-06T16:52:16.313Z,5.72
2023-05-06T16:55:19.001Z,6.15
2023-05-06T17:01:24.554Z,6.57
2023-05-06T17:04:27.747Z,6.60
2023-05-06T17:07:30.327Z,7.00
2023-05-06T17:10:33.315Z,7.00
2023-05-06T17:13:35.915Z,7.07
2023-05-06T17:16:38.989Z,6.82
2023-05-06T17:19:41.586Z,7.10
2023-05-06T17:22:44.748Z,7.15
2023-05-06T17:25:49.671Z,7.12
2023-05-06T17:28:52.700Z,7.47
2023-05-06T17:31:55.450Z,6.50
2023-05-06T17:35:00.495Z,7.45
2023-05-06T17:38:03.157Z,6.60
2023-05-06T17:41:06.092Z,7.28
2023-05-06T17:44:09.223Z,7.47
2023-05-06T17:47:13.047Z,7.55
2023-05-06T17:50:15.877Z,7.53
2023-05-06T17:53:18.772Z,6.50
2023-05-06T17:56:21.456Z,7.72
2023-05-06T17:59:25.691Z,6.62
2023-05-06T18:02:28.903Z,7.22
2023-05-06T18:05:31.791Z,7.97
2023-05-06T18:08:34.489Z,8.10
2023-05-06T18:11:38.275Z,8.05
2023-05-06T18:14:41.000Z,7.05
2023-05-06T18:17:44.000Z,8.15
2023-05-06T18:20:46.627Z,8.65
2023-05-06T18:23:53.509Z,7.37
2023-05-06T18:26:58.832Z,7.22
2023-05-06T18:30:01.846Z,8.80
2023-05-06T18:33:05.369Z,9.65
2023-05-06T18:36:10.754Z,8.77
2023-05-06T18:39:13.410Z,8.48
2023-05-06T18:42:16.539Z,8.55
2023-05-06T18:45:19.218Z,8.65
2023-05-06T18:48:24.454Z,8.23
2023-05-06T18:51:27.588Z,9.43
2023-05-06T18:54:30.729Z,8.80
2023-05-06T18:57:33.447Z,9.35
2023-05-06T19:00:36.388Z,8.27
2023-05-06T19:03:39.327Z,9.00
2023-05-06T19:06:42.285Z,9.70
2023-05-06T19:09:45.484Z,9.43
2023-05-06T19:12:48.513Z,10.43
2023-05-06T19:15:51.171Z,10.45
2023-05-06T19:18:54.075Z,9.55
2023-05-06T19:21:57.443Z,10.10
2023-05-06T19:25:00.278Z,9.40
2023-05-06T19:28:03.732Z,10.43
2023-05-06T19:31:09.525Z,9.75
2023-05-06T19:34:12.388Z,9.30
2023-05-06T19:37:15.822Z,9.57
2023-05-06T19:40:19.563Z,9.18
2023-05-06T19:43:23.297Z,9.52
2023-05-06T19:46:26.219Z,9.52
2023-05-06T19:49:32.163Z,9.43
2023-05-06T19:52:35.180Z,9.07
2023-05-06T19:55:38.041Z,10.60
2023-05-06T19:58:41.073Z,9.70
2023-05-06T20:01:44.327Z,10.30
2023-05-06T20:04:47.417Z,9.98
2023-05-06T20:07:50.754Z,10.30
2023-05-06T20:10:53.800Z,10.98
2023-05-06T20:13:56.701Z,10.10
2023-05-06T20:17:02.535Z,10.27
2023-05-06T20:20:09.662Z,9.75
2023-05-06T20:23:13.236Z,10.45
2023-05-06T20:26:15.776Z,9.98
2023-05-06T20:29:19.092Z,9.80
2023-05-06T20:32:21.794Z,10.25
2023-05-06T20:35:25.669Z,10.60
2023-05-06T20:38:30.848Z,10.50
2023-05-06T20:41:33.826Z,10.05
2023-05-06T20:44:36.380Z,9.60
2023-05-06T20:47:39.308Z,9.75
2023-05-06T20:50:42.494Z,9.88
2023-05-06T20:53:48.584Z,10.02
2023-05-06T20:56:51.243Z,8.80
2023-05-06T20:59:54.355Z,8.55
2023-05-06T21:02:57.089Z,8.20
2023-05-06T21:06:00.210Z,7.80
2023-05-06T21:09:02.843Z,7.97
2023-05-06T21:12:05.970Z,7.80
2023-05-06T21:15:09.570Z,8.07
2023-05-06T21:18:13.625Z,7.37
2023-05-06T21:21:16.671Z,7.43
2023-05-06T21:24:19.611Z,6.97
2023-05-06T21:27:22.188Z,7.85
2023-05-06T21:30:25.074Z,8.77
2023-05-06T21:33:27.924Z,9.10
2023-05-06T21:36:31.230Z,9.73
2023-05-06T21:39:33.858Z,9.38
2023-05-06T21:42:39.057Z,8.95
2023-05-06T21:45:41.794Z,9.30
2023-05-06T21:48:44.615Z,8.55
2023-05-06T21:51:48.131Z,8.68
2023-05-06T21:54:51.295Z,8.57
2023-05-06T21:57:53.895Z,8.02
2023-05-06T22:00:56.868Z,8.00
2023-05-06T22:04:00.555Z,7.87
2023-05-06T22:07:03.264Z,8.05
2023-05-06T22:10:06.551Z,7.68
2023-05-06T22:13:09.205Z,8.60
2023-05-06T22:16:12.437Z,7.80
2023-05-06T22:19:15.024Z,7.53
2023-05-06T22:22:18.818Z,6.47
2023-05-06T22:25:21.475Z,7.22
2023-05-06T22:28:24.451Z,6.65
2023-05-06T22:31:27.112Z,6.30
2023-05-06T22:34:30.231Z,6.00
2023-05-06T22:37:32.827Z,6.03
2023-05-06T22:40:35.830Z,5.68
2023-05-06T22:43:38.595Z,5.60
2023-05-06T22:46:41.466Z,5.53
2023-05-06T22:49:44.422Z,5.53
2023-05-06T22:52:47.666Z,5.87
2023-05-06T22:55:50.263Z,5.05
2023-05-06T22:58:53.375Z,5.65
2023-05-06T23:01:56.895Z,5.47
2023-05-06T23:05:00.047Z,5.10
2023-05-06T23:08:02.553Z,5.18
2023-05-06T23:11:05.519Z,5.07
2023-05-06T23:14:08.232Z,5.18
2023-05-06T23:17:11.483Z,5.10
2023-05-06T23:20:14.615Z,5.37
2023-05-06T23:23:17.726Z,5.32
2023-05-06T23:26:20.829Z,5.35
2023-05-06T23:29:23.855Z,5.20
2023-05-06T23:32:26.549Z,4.97
2023-05-06T23:35:29.455Z,5.30
2023-05-06T23:38:32.076Z,5.03
2023-05-06T23:41:34.964Z,5.07
2023-05-06T23:44:37.546Z,5.30
2023-05-06T23:47:40.589Z,5.22
2023-05-06T23:50:43.213Z,5.47
2023-05-06T23:53:46.418Z,5.68
2023-05-06T23:56:49.191Z,5.53
2023-05-06T23:59:52.089Z,5.62
